Time;durP1;ratioP1;P1;durP2;ratioP2;P2;SDS_P1;SDS_P2;PMS_P1;PMS_P2;Temp;Humidity;BMP_temperature;BMP_pressure;BME280_temperature;BME280_humidity;BME280_pressure;Samples;Min_cycle;Max_cycle;Signal;HPM_P1;HPM_P2
2024/01/23 00:01:16;;;;;;;12.67;3.33;;;4.90;99.90;;;;;;4995583;28;20267;-76
2024/01/23 00:03:41;;;;;;;18.63;4.40;;;4.80;99.90;;;;;;4995926;28;20172;-76
2024/01/23 00:06:07;;;;;;;15.40;3.40;;;4.80;99.90;;;;;;4995226;28;20187;-76
2024/01/23 00:08:33;;;;;;;13.83;3.87;;;4.80;99.90;;;;;;4996453;28;20181;-76
2024/01/23 00:10:58;;;;;;;14.00;3.23;;;4.80;99.90;;;;;;4995266;28;20188;-76
2024/01/23 00:13:24;;;;;;;20.30;3.37;;;4.80;99.90;;;;;;4995736;28;20188;-76
2024/01/23 00:15:49;;;;;;;15.80;3.93;;;4.80;99.90;;;;;;4995575;28;20654;-76
2024/01/23 00:18:15;;;;;;;9.47;3.00;;;4.80;99.90;;;;;;4995318;28;20218;-76
2024/01/23 00:20:41;;;;;;;19.90;3.53;;;4.80;99.90;;;;;;4995453;28;20187;-76
2024/01/23 00:23:06;;;;;;;14.23;3.23;;;4.80;99.90;;;;;;4995768;28;20188;-76
2024/01/23 00:25:32;;;;;;;10.20;2.67;;;4.80;99.90;;;;;;4994938;28;20180;-76
2024/01/23 00:27:57;;;;;;;15.60;3.30;;;4.90;99.90;;;;;;4994782;28;20682;-76
2024/01/23 00:30:23;;;;;;;10.93;2.83;;;4.90;99.90;;;;;;4994907;28;20613;-76
2024/01/23 00:32:49;;;;;;;9.83;2.80;;;4.90;99.90;;;;;;4995546;28;20203;-76
2024/01/23 00:35:14;;;;;;;14.67;3.57;;;4.90;99.90;;;;;;4994658;28;20210;-76
2024/01/23 00:37:40;;;;;;;8.33;2.70;;;5.00;99.90;;;;;;4995006;28;20200;-76
2024/01/23 00:40:07;;;;;;;17.27;3.40;;;5.00;99.90;;;;;;4994764;28;20223;-76
2024/01/23 00:42:33;;;;;;;10.13;3.10;;;5.00;99.90;;;;;;4994967;28;20181;-76
2024/01/23 00:44:59;;;;;;;14.47;3.53;;;5.00;99.90;;;;;;4994999;28;20176;-76
2024/01/23 00:47:25;;;;;;;10.47;3.20;;;5.10;99.90;;;;;;4996046;28;20560;-76
2024/01/23 00:49:50;;;;;;;10.67;2.90;;;5.00;99.90;;;;;;4995694;28;20195;-76
2024/01/23 00:52:16;;;;;;;11.67;3.00;;;5.00;99.90;;;;;;4994248;28;20258;-76
2024/01/23 00:54:41;;;;;;;13.23;3.10;;;5.00;99.90;;;;;;4994175;28;20184;-76
2024/01/23 00:57:07;;;;;;;11.27;3.10;;;5.00;99.90;;;;;;4994261;28;20206;-76
2024/01/23 00:59:33;;;;;;;14.13;3.00;;;5.00;99.90;;;;;;4995037;28;20207;-76
2024/01/23 01:02:50;;;;;;;10.27;2.90;;;4.90;99.90;;;;;;4994686;28;20187;-76
2024/01/23 01:05:16;;;;;;;12.83;2.77;;;4.80;99.90;;;;;;4995015;28;20295;-76
2024/01/23 01:07:42;;;;;;;13.80;3.20;;;4.70;99.90;;;;;;4994514;28;20239;-76
2024/01/23 01:10:08;;;;;;;9.13;2.67;;;4.60;99.90;;;;;;4993149;28;20184;-76
2024/01/23 01:12:34;;;;;;;14.77;3.13;;;4.40;99.90;;;;;;4994258;28;20247;-76
2024/01/23 01:15:00;;;;;;;11.63;2.80;;;4.30;99.90;;;;;;4995233;28;20188;-76
2024/01/23 01:17:26;;;;;;;16.67;2.93;;;4.20;99.90;;;;;;4994191;28;20219;-76
2024/01/23 01:19:52;;;;;;;14.23;3.00;;;4.20;99.90;;;;;;4994300;28;20208;-76
2024/01/23 01:22:18;;;;;;;10.47;2.40;;;4.20;99.90;;;;;;4993874;28;20184;-76
2024/01/23 01:24:43;;;;;;;13.17;2.87;;;4.20;99.90;;;;;;4995149;28;20176;-76
2024/01/23 01:27:09;;;;;;;11.27;3.17;;;4.10;99.90;;;;;;4993747;28;20602;-76
2024/01/23 01:29:34;;;;;;;11.37;2.93;;;4.10;99.90;;;;;;4993685;28;20176;-76
2024/01/23 01:32:00;;;;;;;10.53;2.77;;;4.00;99.90;;;;;;4993737;28;20214;-76
2024/01/23 01:34:26;;;;;;;14.23;3.00;;;4.00;99.90;;;;;;4993697;28;20180;-76
2024/01/23 01:36:52;;;;;;;11.80;3.00;;;4.00;99.90;;;;;;4994961;28;20196;-76
2024/01/23 01:39:17;;;;;;;14.20;2.73;;;4.10;99.90;;;;;;4995047;28;20280;-76
2024/01/23 01:41:43;;;;;;;14.07;2.70;;;4.20;99.90;;;;;;4995078;28;20183;-76
2024/01/23 01:44:08;;;;;;;15.07;3.07;;;4.20;99.90;;;;;;4993694;28;20168;-76
2024/01/23 01:46:34;;;;;;;13.37;2.97;;;4.30;99.90;;;;;;4993728;28;20254;-76
2024/01/23 01:49:00;;;;;;;18.23;3.43;;;4.30;99.90;;;;;;4993385;28;20180;-76
2024/01/23 01:51:28;;;;;;;9.93;2.70;;;4.40;99.90;;;;;;4994689;28;20184;-76
2024/01/23 01:53:55;;;;;;;8.73;2.77;;;4.40;99.90;;;;;;4994630;28;20183;-76
2024/01/23 01:56:23;;;;;;;13.00;3.10;;;4.30;99.90;;;;;;4993962;28;20264;-76
2024/01/23 01:58:49;;;;;;;7.37;2.33;;;4.20;99.90;;;;;;4994724;28;20231;-76
2024/01/23 02:37:52;;;;;;;12.60;2.63;;;4.60;99.90;;;;;;5104176;23;20239;-85
2024/01/23 02:40:18;;;;;;;12.43;2.50;;;4.70;99.90;;;;;;5012188;28;20203;-85
2024/01/23 02:42:43;;;;;;;8.90;2.60;;;4.80;99.90;;;;;;5012489;28;20180;-85
2024/01/23 02:45:09;;;;;;;8.93;2.53;;;4.90;99.90;;;;;;5012636;28;20187;-85
2024/01/23 02:47:34;;;;;;;12.67;2.50;;;4.90;99.90;;;;;;5012557;28;20182;-85
2024/01/23 02:50:00;;;;;;;13.00;2.40;;;4.90;99.90;;;;;;5012525;28;20210;-85
2024/01/23 02:52:27;;;;;;;11.47;2.30;;;4.90;99.90;;;;;;5012703;28;20180;-85
2024/01/23 02:54:53;;;;;;;5.77;2.07;;;4.80;99.90;;;;;;5012586;28;20218;-85
2024/01/23 02:57:18;;;;;;;6.37;1.63;;;4.80;99.90;;;;;;5012329;28;20187;-85
2024/01/23 02:59:44;;;;;;;6.67;1.80;;;4.80;99.90;;;;;;5012264;28;20212;-85
2024/01/23 03:02:10;;;;;;;13.70;2.80;;;4.80;99.90;;;;;;5012516;28;20179;-85
2024/01/23 03:04:35;;;;;;;8.47;2.20;;;4.80;99.90;;;;;;5012548;28;20176;-85
2024/01/23 03:07:01;;;;;;;9.90;2.20;;;4.80;99.90;;;;;;5012707;28;20242;-85
2024/01/23 03:09:27;;;;;;;7.77;2.10;;;4.70;99.90;;;;;;5012925;28;20202;-85
2024/01/23 03:11:54;;;;;;;8.80;2.40;;;4.70;99.90;;;;;;5012045;28;20271;-85
2024/01/23 03:14:19;;;;;;;9.93;2.67;;;4.60;99.90;;;;;;5012085;28;20207;-85
2024/01/23 03:16:46;;;;;;;9.30;2.17;;;4.60;99.90;;;;;;5012174;28;20183;-85
2024/01/23 03:19:11;;;;;;;9.50;2.90;;;4.50;99.90;;;;;;5012115;28;20211;-85
2024/01/23 03:21:38;;;;;;;12.17;2.73;;;4.50;99.90;;;;;;5011915;28;20175;-85
2024/01/23 03:24:05;;;;;;;11.87;2.77;;;4.50;99.90;;;;;;5011907;28;20221;-85
2024/01/23 03:26:31;;;;;;;10.93;2.53;;;4.50;99.90;;;;;;5011784;28;20274;-85
2024/01/23 03:28:57;;;;;;;12.40;2.73;;;4.50;99.90;;;;;;5012215;28;20207;-85
2024/01/23 03:31:24;;;;;;;8.07;2.93;;;4.60;99.90;;;;;;5011850;28;20213;-85
2024/01/23 03:33:50;;;;;;;14.77;2.67;;;4.60;99.90;;;;;;5014446;28;20318;-85
2024/01/23 03:36:16;;;;;;;17.17;3.07;;;4.70;99.90;;;;;;5015401;28;20615;-85
2024/01/23 03:38:43;;;;;;;14.87;3.17;;;4.80;99.90;;;;;;5015301;28;20215;-85
2024/01/23 03:41:09;;;;;;;13.27;2.33;;;4.80;99.90;;;;;;5015121;28;20186;-85
2024/01/23 03:43:35;;;;;;;13.77;2.50;;;4.80;99.90;;;;;;5015268;28;20179;-85
2024/01/23 03:46:01;;;;;;;8.23;2.50;;;4.80;99.90;;;;;;5016365;28;20183;-85
2024/01/23 03:48:28;;;;;;;12.73;3.10;;;4.80;99.90;;;;;;5015293;28;20204;-85
2024/01/23 03:50:55;;;;;;;8.47;2.10;;;4.80;99.90;;;;;;5016433;28;20175;-85
2024/01/23 03:53:20;;;;;;;9.37;2.30;;;4.90;99.90;;;;;;5015034;28;20176;-85
2024/01/23 03:55:47;;;;;;;9.13;2.67;;;4.90;99.90;;;;;;5015854;28;20517;-85
2024/01/23 03:58:13;;;;;;;11.77;3.20;;;5.00;99.90;;;;;;5015763;28;20186;-85
2024/01/23 04:00:42;;;;;;;11.93;2.60;;;5.10;99.90;;;;;;5015219;28;20218;-85
2024/01/23 04:03:10;;;;;;;2.73;1.17;;;5.10;99.90;;;;;;5015198;28;20180;-85
2024/01/23 04:05:36;;;;;;;1.83;0.80;;;4.90;99.90;;;;;;5016631;28;20168;-84
2024/01/23 04:08:03;;;;;;;2.50;1.27;;;4.30;99.90;;;;;;5015236;28;20207;-85
2024/01/23 04:10:29;;;;;;;3.77;0.93;;;3.90;99.90;;;;;;5014961;28;20194;-85
2024/01/23 04:12:54;;;;;;;2.80;0.60;;;3.70;99.90;;;;;;5014736;28;20180;-85
2024/01/23 04:15:20;;;;;;;0.93;0.50;;;3.70;99.90;;;;;;5014742;28;20181;-85
2024/01/23 04:17:45;;;;;;;1.30;0.47;;;3.70;99.90;;;;;;5014811;28;20302;-84
2024/01/23 04:20:11;;;;;;;0.40;0.30;;;3.70;99.90;;;;;;5014729;28;20233;-85
2024/01/23 04:22:37;;;;;;;3.10;2.07;;;3.70;99.90;;;;;;5014570;28;20176;-85
2024/01/23 04:25:04;;;;;;;2.30;2.10;;;3.70;99.90;;;;;;5015738;28;20184;-85
2024/01/23 04:27:30;;;;;;;4.17;2.77;;;3.70;99.90;;;;;;5014466;28;20238;-85
2024/01/23 04:29:56;;;;;;;2.67;2.43;;;3.70;99.90;;;;;;5014214;28;20203;-85
2024/01/23 04:32:22;;;;;;;7.30;6.17;;;3.70;99.90;;;;;;5014489;28;20183;-85
2024/01/23 04:34:48;;;;;;;8.27;5.07;;;3.70;99.90;;;;;;5014001;28;20302;-85
2024/01/23 04:37:13;;;;;;;1.73;0.80;;;3.70;99.90;;;;;;5014214;28;20206;-85
2024/01/23 04:39:39;;;;;;;1.60;1.27;;;3.70;99.90;;;;;;5014685;28;20215;-85
2024/01/23 04:42:05;;;;;;;2.50;1.40;;;3.80;99.90;;;;;;5015229;28;20651;-85
2024/01/23 04:44:30;;;;;;;1.50;1.10;;;3.80;99.90;;;;;;5013911;28;20184;-85
2024/01/23 04:46:56;;;;;;;2.37;2.03;;;3.80;99.90;;;;;;5013969;28;20179;-85
2024/01/23 04:49:22;;;;;;;2.93;1.47;;;3.80;99.90;;;;;;5014426;28;20281;-85
2024/01/23 04:51:47;;;;;;;6.20;3.83;;;3.70;99.90;;;;;;5013728;28;20551;-85
2024/01/23 04:54:13;;;;;;;20.87;15.87;;;3.50;99.90;;;;;;5014018;28;20179;-85
2024/01/23 04:56:40;;;;;;;37.57;26.43;;;3.40;99.90;;;;;;5013757;28;20184;-85
2024/01/23 04:59:05;;;;;;;25.20;16.07;;;3.20;99.90;;;;;;5013579;28;20211;-85
2024/01/23 05:01:31;;;;;;;46.03;31.80;;;3.10;99.90;;;;;;5013902;28;20186;-85
2024/01/23 05:03:56;;;;;;;43.87;31.93;;;2.90;99.90;;;;;;5013672;28;20620;-85
2024/01/23 05:06:22;;;;;;;45.87;32.97;;;2.80;99.90;;;;;;5013644;28;20242;-85
2024/01/23 05:08:48;;;;;;;97.03;78.17;;;2.70;99.90;;;;;;5013988;28;20199;-85
2024/01/23 05:11:13;;;;;;;71.60;56.93;;;2.50;99.90;;;;;;5014556;28;20180;-85
2024/01/23 05:13:42;;;;;;;29.80;26.67;;;2.40;99.90;;;;;;5013514;28;20237;-85
2024/01/23 05:16:08;;;;;;;23.17;20.67;;;2.30;99.90;;;;;;5014608;28;20682;-85
2024/01/23 05:18:33;;;;;;;11.10;10.00;;;2.20;99.90;;;;;;5013182;28;20195;-85
2024/01/23 05:20:59;;;;;;;8.33;7.53;;;2.20;99.90;;;;;;5014175;28;20179;-85
2024/01/23 05:23:26;;;;;;;5.40;3.63;;;2.20;99.90;;;;;;5014400;28;20179;-85
2024/01/23 05:25:51;;;;;;;2.80;2.60;;;2.20;99.90;;;;;;5013394;28;20187;-85
2024/01/23 05:28:17;;;;;;;6.30;2.53;;;2.30;99.90;;;;;;5013125;28;20200;-85
2024/01/23 05:30:42;;;;;;;4.47;2.37;;;2.40;99.90;;;;;;5013090;28;20186;-85
2024/01/23 05:33:08;;;;;;;4.53;2.50;;;2.40;99.90;;;;;;5013370;28;20238;-85
2024/01/23 05:35:34;;;;;;;7.33;4.03;;;2.30;99.90;;;;;;5013477;28;20242;-85
2024/01/23 05:38:00;;;;;;;7.43;3.77;;;2.20;99.90;;;;;;5013023;28;20196;-85
2024/01/23 05:40:25;;;;;;;6.40;2.53;;;2.20;99.90;;;;;;5012769;28;20290;-85
2024/01/23 05:42:51;;;;;;;6.73;2.27;;;2.10;99.90;;;;;;5013216;28;20275;-85
2024/01/23 05:45:16;;;;;;;5.50;2.67;;;2.10;99.90;;;;;;5012988;28;20187;-85
2024/01/23 05:47:42;;;;;;;5.20;2.00;;;2.10;99.90;;;;;;5012658;28;20183;-85
2024/01/23 05:50:08;;;;;;;4.30;2.20;;;2.10;99.90;;;;;;5012750;28;20246;-85
2024/01/23 05:52:34;;;;;;;8.43;2.50;;;2.10;99.90;;;;;;5012591;28;20207;-85
2024/01/23 05:55:00;;;;;;;6.47;3.10;;;2.10;99.90;;;;;;5012446;28;20219;-85
2024/01/23 05:57:26;;;;;;;11.20;3.30;;;2.00;99.90;;;;;;5013127;28;20202;-85
2024/01/23 05:59:52;;;;;;;8.77;2.13;;;2.10;99.90;;;;;;5013699;28;20211;-85
2024/01/23 06:02:17;;;;;;;8.73;2.90;;;2.20;99.90;;;;;;5012944;28;20175;-85
2024/01/23 06:04:43;;;;;;;13.37;3.10;;;2.40;99.90;;;;;;5012500;28;20187;-85
2024/01/23 06:07:09;;;;;;;7.03;2.47;;;2.40;99.90;;;;;;5013798;28;20211;-85
2024/01/23 06:09:34;;;;;;;8.93;3.60;;;2.50;99.90;;;;;;5013820;28;20199;-85
2024/01/23 06:12:00;;;;;;;11.60;3.33;;;2.60;99.90;;;;;;5012910;28;20187;-84
2024/01/23 06:14:25;;;;;;;10.53;3.50;;;2.60;99.90;;;;;;5013106;28;20190;-84
2024/01/23 06:16:51;;;;;;;16.50;3.10;;;2.60;99.90;;;;;;5012561;28;20190;-84
2024/01/23 06:19:20;;;;;;;9.90;2.93;;;2.50;99.90;;;;;;5012425;28;20299;-85
2024/01/23 06:21:46;;;;;;;9.57;3.20;;;2.60;99.90;;;;;;5012611;28;20203;-85
2024/01/23 06:24:11;;;;;;;13.33;3.00;;;2.50;99.90;;;;;;5012509;28;20184;-85
2024/01/23 06:26:37;;;;;;;11.20;3.17;;;2.50;99.90;;;;;;5012715;28;20180;-85
2024/01/23 06:29:04;;;;;;;9.73;2.77;;;2.40;99.90;;;;;;5012625;28;20234;-85
2024/01/23 06:31:30;;;;;;;9.70;3.33;;;2.40;99.90;;;;;;5012400;28;20184;-85
2024/01/23 06:33:56;;;;;;;12.60;3.33;;;2.40;99.90;;;;;;5012422;28;20226;-85
2024/01/23 06:36:22;;;;;;;17.43;3.53;;;2.40;99.90;;;;;;5012418;28;20289;-85
2024/01/23 06:38:48;;;;;;;17.70;4.10;;;2.40;99.90;;;;;;5012690;28;20307;-85
2024/01/23 06:41:14;;;;;;;10.67;3.37;;;2.30;99.90;;;;;;5012620;28;20183;-86
2024/01/23 06:43:39;;;;;;;8.97;3.97;;;2.30;99.90;;;;;;5012534;28;20187;-86
2024/01/23 06:46:05;;;;;;;9.43;3.67;;;2.30;99.90;;;;;;5012793;28;20190;-84
2024/01/23 06:48:31;;;;;;;16.20;4.57;;;2.30;99.90;;;;;;5012455;28;20187;-86
2024/01/23 06:50:56;;;;;;;12.77;4.60;;;2.30;99.90;;;;;;5012159;28;20180;-86
2024/01/23 06:53:22;;;;;;;12.60;3.53;;;2.40;99.90;;;;;;5011825;28;20183;-86
2024/01/23 06:55:48;;;;;;;10.90;3.73;;;2.50;99.90;;;;;;5012438;28;20183;-86
2024/01/23 06:58:13;;;;;;;11.87;3.77;;;2.60;99.90;;;;;;5012457;28;20262;-86
2024/01/23 07:00:39;;;;;;;11.10;3.30;;;2.60;99.90;;;;;;5012912;28;20243;-86
2024/01/23 07:03:06;;;;;;;15.90;5.50;;;2.60;99.90;;;;;;5012032;28;20214;-86
2024/01/23 07:05:32;;;;;;;18.00;9.80;;;2.60;99.90;;;;;;5012431;28;20180;-86
2024/01/23 07:07:57;;;;;;;16.27;6.47;;;2.60;99.90;;;;;;5013863;28;20330;-86
2024/01/23 07:10:23;;;;;;;13.37;6.13;;;2.60;99.90;;;;;;5015975;28;20179;-85
2024/01/23 07:12:49;;;;;;;13.03;5.40;;;2.50;99.90;;;;;;5015863;28;20187;-84
2024/01/23 07:15:14;;;;;;;12.73;4.93;;;2.60;99.90;;;;;;5016677;28;20206;-86
2024/01/23 07:17:40;;;;;;;12.57;4.40;;;2.60;99.90;;;;;;5016486;28;20290;-85
2024/01/23 07:20:09;;;;;;;10.97;3.97;;;2.70;99.90;;;;;;5015756;28;20211;-85
2024/01/23 07:22:35;;;;;;;15.80;4.13;;;2.80;99.90;;;;;;5015521;28;20184;-85
2024/01/23 07:25:04;;;;;;;15.00;4.03;;;2.90;99.90;;;;;;5015454;28;20176;-85
2024/01/23 07:27:30;;;;;;;13.57;3.70;;;2.90;99.90;;;;;;5015581;28;20183;-85
2024/01/23 07:29:55;;;;;;;11.33;3.57;;;2.90;99.90;;;;;;5015619;28;20203;-86
2024/01/23 07:32:21;;;;;;;15.77;3.90;;;2.90;99.90;;;;;;5015456;28;20194;-86
2024/01/23 07:34:47;;;;;;;11.17;4.50;;;2.90;99.90;;;;;;5015423;28;20209;-85
2024/01/23 07:37:13;;;;;;;30.17;17.00;;;2.90;99.90;;;;;;5015453;28;20206;-85
2024/01/23 07:39:39;;;;;;;26.30;15.67;;;2.90;99.90;;;;;;5015219;28;20212;-85
2024/01/23 07:42:05;;;;;;;18.67;7.43;;;3.00;99.90;;;;;;5015546;28;20259;-85
2024/01/23 07:44:33;;;;;;;50.70;27.87;;;3.10;99.90;;;;;;5015614;28;20262;-85
2024/01/23 07:46:59;;;;;;;84.47;45.87;;;3.20;99.90;;;;;;5014994;28;20244;-85
2024/01/23 07:49:24;;;;;;;44.67;24.97;;;3.20;99.90;;;;;;5014927;28;20291;-85
2024/01/23 07:51:51;;;;;;;67.83;35.73;;;3.30;99.90;;;;;;5015000;28;20190;-85
2024/01/23 07:54:17;;;;;;;40.33;22.27;;;3.40;99.90;;;;;;5015550;28;20184;-85
2024/01/23 07:56:43;;;;;;;27.63;14.23;;;3.40;99.90;;;;;;5015381;28;20180;-85
2024/01/23 07:59:08;;;;;;;28.27;12.27;;;3.50;99.90;;;;;;5015264;28;20218;-86
2024/01/23 08:01:34;;;;;;;21.57;7.17;;;3.50;99.90;;;;;;5014897;28;20705;-85
2024/01/23 08:04:00;;;;;;;19.57;5.57;;;3.60;99.90;;;;;;5014729;28;20218;-85
2024/01/23 08:06:26;;;;;;;15.77;4.57;;;3.60;99.90;;;;;;5015266;28;20226;-85
2024/01/23 08:08:52;;;;;;;15.13;4.53;;;3.70;99.90;;;;;;5014574;28;20278;-85
2024/01/23 08:11:17;;;;;;;14.47;4.53;;;3.60;99.90;;;;;;5014601;28;20184;-85
2024/01/23 08:13:43;;;;;;;18.33;5.50;;;3.70;99.90;;;;;;5014546;28;20240;-85
2024/01/23 08:16:10;;;;;;;13.20;3.87;;;3.70;99.90;;;;;;5015654;28;20191;-85
2024/01/23 08:18:38;;;;;;;16.93;3.63;;;3.70;99.90;;;;;;5014276;28;20199;-86
2024/01/23 08:21:04;;;;;;;16.93;4.03;;;3.80;99.90;;;;;;5015492;28;20246;-85
2024/01/23 08:23:30;;;;;;;19.00;3.73;;;3.80;99.90;;;;;;5015115;28;20180;-85
2024/01/23 08:25:55;;;;;;;13.47;3.47;;;3.80;99.90;;;;;;5015015;28;20203;-85
2024/01/23 08:28:23;;;;;;;13.57;3.87;;;3.80;99.90;;;;;;5014943;28;20195;-85
2024/01/23 08:30:48;;;;;;;10.20;3.40;;;3.80;99.90;;;;;;5015127;28;20628;-85
2024/01/23 08:33:18;;;;;;;16.50;4.47;;;3.90;99.90;;;;;;5014239;28;20190;-85
2024/01/23 08:35:44;;;;;;;17.03;4.10;;;3.90;99.90;;;;;;5014183;28;20257;-85
2024/01/23 08:38:10;;;;;;;12.73;4.13;;;3.90;99.90;;;;;;5014404;28;20190;-86
2024/01/23 08:40:37;;;;;;;15.67;4.13;;;4.00;99.90;;;;;;5013947;28;20207;-85
2024/01/23 08:43:04;;;;;;;19.37;4.67;;;4.00;99.90;;;;;;5014033;28;20176;-85
2024/01/23 08:45:29;;;;;;;16.73;3.93;;;4.00;99.90;;;;;;5015182;28;20230;-85
2024/01/23 08:47:55;;;;;;;10.60;2.87;;;4.00;99.90;;;;;;5014178;28;20207;-85
2024/01/23 08:50:21;;;;;;;14.23;3.50;;;4.10;99.90;;;;;;5014019;28;20238;-86
2024/01/23 08:52:47;;;;;;;15.00;3.63;;;4.20;99.90;;;;;;5013908;28;20211;-86
2024/01/23 08:55:13;;;;;;;14.07;3.47;;;4.20;99.90;;;;;;5013836;28;20188;-86
2024/01/23 08:57:39;;;;;;;12.67;3.20;;;4.30;99.90;;;;;;5013927;28;20202;-85
2024/01/23 09:00:05;;;;;;;11.90;3.00;;;4.30;99.90;;;;;;5013657;28;20260;-86
2024/01/23 09:02:30;;;;;;;18.37;3.33;;;4.30;99.90;;;;;;5013573;28;20651;-85
2024/01/23 09:04:56;;;;;;;18.67;3.60;;;4.40;99.90;;;;;;5013879;28;20229;-85
2024/01/23 09:07:24;;;;;;;11.13;3.83;;;4.40;99.90;;;;;;5014464;28;20257;-85
2024/01/23 09:09:49;;;;;;;12.90;2.90;;;4.40;99.90;;;;;;5013434;28;20829;-86
2024/01/23 09:12:16;;;;;;;15.47;3.30;;;4.50;99.90;;;;;;5013593;28;20262;-86
2024/01/23 09:14:43;;;;;;;13.07;3.00;;;4.60;99.90;;;;;;5013356;28;20179;-86
2024/01/23 09:17:08;;;;;;;14.50;3.87;;;4.70;99.90;;;;;;5013623;28;20214;-86
2024/01/23 09:19:34;;;;;;;18.20;3.93;;;4.80;99.90;;;;;;5013533;28;20215;-86
2024/01/23 09:21:59;;;;;;;11.83;3.20;;;4.90;99.90;;;;;;5013366;28;20659;-86
2024/01/23 09:24:25;;;;;;;13.63;3.37;;;5.00;99.90;;;;;;5013580;28;20198;-86
2024/01/23 09:26:51;;;;;;;16.60;3.40;;;5.20;99.90;;;;;;5013175;28;20172;-86
2024/01/23 09:29:17;;;;;;;12.40;3.13;;;5.30;99.90;;;;;;5013366;28;20206;-86
2024/01/23 09:31:46;;;;;;;12.20;3.30;;;5.50;99.90;;;;;;5012755;28;20210;-85
2024/01/23 09:34:12;;;;;;;17.07;4.10;;;5.60;99.90;;;;;;5013027;28;20290;-85
2024/01/23 09:36:38;;;;;;;9.80;3.20;;;5.70;99.90;;;;;;5013042;28;20631;-85
2024/01/23 09:39:04;;;;;;;9.60;2.75;;;5.90;99.90;;;;;;5013643;28;20294;-86
2024/01/23 09:41:35;;;;;;;12.43;2.95;;;6.00;99.90;;;;;;5014236;28;20206;-86
2024/01/23 09:44:01;;;;;;;14.02;3.42;;;6.00;99.90;;;;;;5014339;28;20231;-86
2024/01/23 09:46:26;;;;;;;9.90;2.92;;;6.10;99.90;;;;;;5012972;28;20183;-86
2024/01/23 09:48:53;;;;;;;14.95;3.67;;;6.10;99.90;;;;;;5013190;28;20206;-86
2024/01/23 09:51:21;;;;;;;15.25;3.28;;;6.20;99.90;;;;;;5013335;28;20321;-86
2024/01/23 09:53:48;;;;;;;13.48;3.42;;;6.20;99.90;;;;;;5012858;28;20184;-86
2024/01/23 09:56:14;;;;;;;11.57;3.08;;;6.20;99.90;;;;;;5012732;28;20179;-86
2024/01/23 09:58:40;;;;;;;11.55;3.40;;;6.20;99.90;;;;;;5012982;28;20552;-86
2024/01/23 10:01:06;;;;;;;12.88;3.47;;;6.30;99.90;;;;;;5012643;28;20183;-86
2024/01/23 10:03:34;;;;;;;9.73;2.97;;;6.30;99.90;;;;;;5013409;28;20179;-86
2024/01/23 10:06:00;;;;;;;15.55;3.17;;;6.40;99.90;;;;;;5012915;28;20176;-86
2024/01/23 10:08:25;;;;;;;17.33;6.20;;;6.30;99.90;;;;;;5012635;28;20191;-86
2024/01/23 10:11:01;;;;;;;13.77;4.10;;;6.20;99.90;;;;;;5012632;28;20182;-86
2024/01/23 10:13:28;;;;;;;14.02;4.15;;;6.20;99.90;;;;;;5012986;28;20647;-86
2024/01/23 10:15:56;;;;;;;15.18;4.28;;;6.10;99.90;;;;;;5012676;28;20182;-86
2024/01/23 10:18:22;;;;;;;15.65;3.67;;;6.10;99.90;;;;;;5012438;28;20195;-86
2024/01/23 10:20:48;;;;;;;14.65;3.55;;;6.10;99.90;;;;;;5012931;28;20210;-86
2024/01/23 10:23:14;;;;;;;15.50;3.83;;;6.10;99.90;;;;;;5012532;28;20550;-86
2024/01/23 10:25:40;;;;;;;13.15;3.60;;;6.20;99.90;;;;;;5012666;28;20612;-86
2024/01/23 10:28:10;;;;;;;16.20;3.85;;;6.30;99.90;;;;;;5012427;28;20176;-86
2024/01/23 10:30:38;;;;;;;16.50;4.07;;;6.40;99.90;;;;;;5012760;28;20180;-86
2024/01/23 10:33:09;;;;;;;18.40;4.03;;;6.50;99.90;;;;;;5013191;28;20179;-86
2024/01/23 10:35:35;;;;;;;13.70;3.50;;;6.50;99.90;;;;;;5012386;28;20175;-86
2024/01/23 10:38:02;;;;;;;18.05;4.00;;;6.60;99.90;;;;;;5012369;28;20206;-86
2024/01/23 10:40:29;;;;;;;16.15;3.72;;;6.70;99.90;;;;;;5012285;28;20199;-86
2024/01/23 10:42:59;;;;;;;13.90;3.75;;;6.70;99.90;;;;;;5015908;28;20180;-86
2024/01/23 10:45:25;;;;;;;12.27;3.60;;;6.70;99.90;;;;;;5016220;28;20176;-86
2024/01/23 10:47:57;;;;;;;14.05;4.15;;;6.80;99.90;;;;;;5016499;28;20187;-86
2024/01/23 10:50:22;;;;;;;15.07;3.45;;;6.80;99.90;;;;;;5016053;28;20214;-86
2024/01/23 10:52:49;;;;;;;12.35;3.42;;;6.90;99.90;;;;;;5016018;28;20648;-86
2024/01/23 10:55:21;;;;;;;11.02;3.30;;;7.00;99.90;;;;;;5016249;28;20183;-86
2024/01/23 10:57:47;;;;;;;13.63;3.65;;;7.10;99.90;;;;;;5016081;28;20198;-86
2024/01/23 11:00:17;;;;;;;14.32;3.75;;;7.10;99.90;;;;;;5015783;28;20222;-86
2024/01/23 11:03:05;;;;;;;11.82;3.38;;;7.20;99.90;;;;;;5016674;28;20258;-86
2024/01/23 11:05:55;;;;;;;15.48;4.10;;;7.20;99.90;;;;;;5016938;28;20226;-86
2024/01/23 11:08:33;;;;;;;11.85;3.53;;;7.10;99.90;;;;;;5015787;28;20273;-86
2024/01/23 11:11:16;;;;;;;17.23;3.83;;;7.20;99.90;;;;;;5016117;28;20229;-86
2024/01/23 11:13:57;;;;;;;12.57;3.42;;;7.20;99.90;;;;;;5015716;28;20182;-86
2024/01/23 11:16:22;;;;;;;11.95;3.72;;;7.30;99.90;;;;;;5016613;28;20183;-86
2024/01/23 11:18:53;;;;;;;13.50;3.22;;;7.40;99.90;;;;;;5015759;28;20200;-86
2024/01/23 11:21:22;;;;;;;13.70;3.42;;;7.60;99.90;;;;;;5016168;28;20629;-86
2024/01/23 11:24:01;;;;;;;10.65;2.92;;;7.80;99.90;;;;;;5015400;28;20271;-86
2024/01/23 11:26:27;;;;;;;14.82;3.65;;;7.80;99.90;;;;;;5015476;28;20175;-86
2024/01/23 11:28:54;;;;;;;9.55;2.75;;;7.70;99.90;;;;;;5015241;28;20290;-86
2024/01/23 11:31:25;;;;;;;13.65;3.92;;;7.60;99.90;;;;;;5016261;28;20179;-86
2024/01/23 11:33:52;;;;;;;13.77;3.45;;;7.60;99.90;;;;;;5016659;28;20172;-86
2024/01/23 11:36:23;;;;;;;14.30;3.15;;;7.60;99.90;;;;;;5015721;28;20249;-86
2024/01/23 11:38:56;;;;;;;16.05;4.13;;;7.60;99.90;;;;;;5015483;28;20200;-86
2024/01/23 11:41:23;;;;;;;15.13;3.30;;;7.50;99.90;;;;;;5015345;28;20175;-86
2024/01/23 11:43:50;;;;;;;13.80;3.63;;;7.60;99.90;;;;;;5016424;28;20182;-86
2024/01/23 11:46:18;;;;;;;11.45;3.30;;;7.70;99.90;;;;;;5015037;28;20241;-86
2024/01/23 11:48:44;;;;;;;14.50;3.25;;;7.80;99.90;;;;;;5015041;28;20196;-86
2024/01/23 11:51:13;;;;;;;14.68;4.00;;;7.70;99.90;;;;;;5015414;28;20183;-86
2024/01/23 11:53:41;;;;;;;13.50;3.60;;;7.70;99.90;;;;;;5014265;28;20209;-86
2024/01/23 11:56:09;;;;;;;14.07;3.78;;;7.60;99.90;;;;;;5015151;28;20180;-86
2024/01/23 11:58:35;;;;;;;12.00;3.15;;;7.70;99.90;;;;;;5015118;28;20203;-86
2024/01/23 12:01:01;;;;;;;13.38;3.55;;;7.80;99.90;;;;;;5015490;28;20211;-86
2024/01/23 12:03:28;;;;;;;12.50;3.65;;;7.80;99.90;;;;;;5015649;28;20175;-86
2024/01/23 12:05:55;;;;;;;14.52;3.40;;;7.80;99.90;;;;;;5014713;28;20178;-86
2024/01/23 12:08:22;;;;;;;13.82;3.28;;;7.90;99.90;;;;;;5014638;28;20192;-86
2024/01/23 12:10:49;;;;;;;37.20;22.85;;;7.90;99.90;;;;;;5014629;28;20223;-86
2024/01/23 12:13:14;;;;;;;22.45;10.93;;;7.90;99.90;;;;;;5014973;28;20179;-86
2024/01/23 12:15:40;;;;;;;20.65;7.68;;;8.00;99.90;;;;;;5014459;28;20190;-86
2024/01/23 12:18:06;;;;;;;15.82;4.32;;;8.20;99.90;;;;;;5015271;28;20179;-86
2024/01/23 12:20:31;;;;;;;16.55;3.85;;;8.20;99.90;;;;;;5015282;28;20207;-86
2024/01/23 12:22:57;;;;;;;14.15;3.47;;;8.20;99.90;;;;;;5014735;28;20199;-86
2024/01/23 12:25:23;;;;;;;12.88;3.78;;;8.00;99.90;;;;;;5015439;28;20184;-86
2024/01/23 12:27:49;;;;;;;16.35;4.10;;;7.80;99.90;;;;;;5014889;28;20607;-85
2024/01/23 12:30:16;;;;;;;13.38;3.47;;;7.80;99.90;;;;;;5014588;28;20196;-86
2024/01/23 12:32:48;;;;;;;15.18;3.58;;;7.50;99.90;;;;;;5014496;28;20190;-86
2024/01/23 12:35:14;;;;;;;13.52;4.05;;;7.40;99.90;;;;;;5014974;28;20176;-85
2024/01/23 12:37:40;;;;;;;12.98;3.58;;;7.20;99.90;;;;;;5015170;28;20561;-86
2024/01/23 12:40:12;;;;;;;15.93;4.03;;;7.10;99.90;;;;;;5014179;28;20207;-85
2024/01/23 12:42:46;;;;;;;17.25;4.18;;;7.00;99.90;;;;;;5014199;28;20167;-85
2024/01/23 12:45:14;;;;;;;15.77;4.20;;;6.90;99.90;;;;;;5014286;28;20194;-85
2024/01/23 12:47:43;;;;;;;16.27;6.30;;;6.80;99.90;;;;;;5014543;28;20337;-86
2024/01/23 12:50:19;;;;;;;21.67;10.85;;;6.70;99.90;;;;;;5014761;28;20228;-86
2024/01/23 12:52:50;;;;;;;13.98;5.57;;;6.70;99.90;;;;;;5014686;28;20232;-86
2024/01/23 12:55:16;;;;;;;37.20;18.20;;;6.60;99.90;;;;;;5014818;28;20191;-86
2024/01/23 12:57:45;;;;;;;18.30;8.35;;;6.60;99.90;;;;;;5014262;28;20211;-87
2024/01/23 13:00:16;;;;;;;22.90;10.95;;;6.70;99.90;;;;;;5014276;28;20242;-86
2024/01/23 13:02:43;;;;;;;14.20;5.30;;;6.70;99.90;;;;;;5014128;28;20254;-86
2024/01/23 13:05:11;;;;;;;17.85;5.15;;;6.80;99.90;;;;;;5015116;28;20171;-86
2024/01/23 13:07:40;;;;;;;16.73;4.05;;;6.90;99.90;;;;;;5014799;28;20172;-86
2024/01/23 13:10:07;;;;;;;10.98;3.88;;;7.00;99.90;;;;;;5013823;28;20203;-86
2024/01/23 13:12:35;;;;;;;15.82;4.35;;;7.00;99.90;;;;;;5013777;28;20556;-86
2024/01/23 13:15:01;;;;;;;13.75;5.13;;;6.90;99.90;;;;;;5013812;28;20251;-86
2024/01/23 13:17:27;;;;;;;14.07;3.80;;;6.80;99.90;;;;;;5014928;28;20188;-88
2024/01/23 13:19:53;;;;;;;12.45;3.33;;;6.80;99.90;;;;;;5013201;28;20211;-88
2024/01/23 13:22:19;;;;;;;14.50;3.95;;;6.70;99.90;;;;;;5013474;28;20202;-88